createdAt,value
2019-04-29T00:00:42.802Z,97860.92
2019-04-29T00:02:44.384Z,97955.75
2019-04-29T00:04:45.968Z,97956.83
2019-04-29T00:06:47.558Z,97951.33
2019-04-29T00:08:49.148Z,97946.66
2019-04-29T00:10:50.756Z,97943.66
2019-04-29T00:12:52.368Z,97939.06
2019-04-29T00:14:55.600Z,97940.84
2019-04-29T00:17:07.151Z,97946.47
2019-04-29T00:19:09.267Z,97944.33
2019-04-29T00:21:10.856Z,97939.05
2019-04-29T00:23:12.456Z,97941.45
2019-04-29T00:25:14.047Z,97939.34
2019-04-29T00:27:15.648Z,97936.48
2019-04-29T00:29:17.287Z,97934.45
2019-04-29T00:31:18.876Z,97935.81
2019-04-29T00:33:20.488Z,97937.01
2019-04-29T00:35:22.072Z,97935.14
2019-04-29T00:37:24.590Z,97930.72
2019-04-29T00:39:38.877Z,97933.14
2019-04-29T00:41:41.401Z,97931.81
2019-04-29T00:43:43.849Z,97927.14
2019-04-29T00:45:45.436Z,97931.05
2019-04-29T00:47:47.005Z,97928.15
2019-04-29T00:49:48.592Z,97927.87
2019-04-29T00:51:50.186Z,97935.48
2019-04-29T00:53:51.784Z,97926.38
2019-04-29T00:55:53.368Z,97928.41
2019-04-29T00:57:54.957Z,97930.55
2019-04-29T00:59:56.563Z,97924.94
2019-04-29T01:01:58.176Z,97928.24
2019-04-29T01:03:59.747Z,97916.24
2019-04-29T01:06:01.389Z,97925.17
2019-04-29T01:08:02.980Z,97924.75
2019-04-29T01:10:04.600Z,97918.88
2019-04-29T01:12:06.259Z,97922.73
2019-04-29T01:14:07.836Z,97915.91
2019-04-29T01:16:09.480Z,97920.23
2019-04-29T01:18:11.071Z,97913.49
2019-04-29T01:20:12.675Z,97904.87
2019-04-29T01:22:14.300Z,97906.59
2019-04-29T01:24:15.870Z,97904.59
2019-04-29T01:26:38.226Z,97905.81
2019-04-29T01:28:40.303Z,97901.55
2019-04-29T01:30:41.884Z,97901.97
2019-04-29T01:32:43.490Z,97898.48
2019-04-29T01:34:50.690Z,97892.59
2019-04-29T01:36:52.274Z,97891.16
2019-04-29T01:38:53.875Z,97892.02
2019-04-29T01:40:56.279Z,97893.71
2019-04-29T01:42:57.870Z,97884.84
2019-04-29T01:44:59.484Z,97883.63
2019-04-29T01:47:01.059Z,97887.06
2019-04-29T01:49:02.645Z,97879.78
2019-04-29T01:51:04.229Z,97838.20
2019-04-29T01:53:05.835Z,97872.54
2019-04-29T01:55:07.444Z,97869.14
2019-04-29T01:57:09.031Z,97867.86
2019-04-29T01:59:10.599Z,97870.77
2019-04-29T02:01:12.184Z,97868.25
2019-04-29T02:03:13.835Z,97866.97
2019-04-29T02:05:15.452Z,97867.31
2019-04-29T02:07:17.046Z,97861.61
2019-04-29T02:09:20.038Z,97868.72
2019-04-29T02:11:21.882Z,97868.11
2019-04-29T02:13:23.454Z,97869.68
2019-04-29T02:15:25.050Z,97865.69
2019-04-29T02:17:26.650Z,97864.81
2019-04-29T02:19:28.275Z,97863.11
2019-04-29T02:21:29.879Z,97859.72
2019-04-29T02:23:37.157Z,97863.11
2019-04-29T02:25:39.330Z,97858.31
2019-04-29T02:27:40.936Z,97861.75
2019-04-29T02:29:42.547Z,97856.18
2019-04-29T02:31:44.185Z,97860.31
2019-04-29T02:33:45.801Z,97847.50
2019-04-29T02:35:47.440Z,97841.53
2019-04-29T02:37:49.062Z,97835.97
2019-04-29T02:39:56.360Z,97836.33
2019-04-29T02:42:00.609Z,97837.17
2019-04-29T02:44:02.229Z,97834.75
2019-04-29T02:46:03.822Z,97837.34
2019-04-29T02:48:05.413Z,97831.88
2019-04-29T02:50:07.001Z,97830.58
2019-04-29T02:52:08.649Z,97828.10
2019-04-29T02:54:10.260Z,97823.95
2019-04-29T02:56:11.874Z,97823.86
2019-04-29T02:58:18.975Z,97829.80
2019-04-29T03:00:24.141Z,97823.08
2019-04-29T03:02:43.505Z,97818.91
2019-04-29T03:05:04.012Z,97813.86
2019-04-29T03:07:05.631Z,97811.00
2019-04-29T03:09:07.229Z,97810.07
2019-04-29T03:11:08.812Z,97817.66
2019-04-29T03:13:10.421Z,97817.52
2019-04-29T03:15:12.012Z,97817.50
2019-04-29T03:17:18.116Z,97808.89
2019-04-29T03:19:17.731Z,97814.41
2019-04-29T03:21:19.345Z,97800.34
2019-04-29T03:23:20.957Z,97817.44
2019-04-29T03:25:22.562Z,97803.80
2019-04-29T03:27:24.136Z,97809.68
2019-04-29T03:29:25.747Z,97805.03
2019-04-29T03:31:27.338Z,97796.78
2019-04-29T03:33:28.980Z,97795.52
2019-04-29T03:35:30.661Z,97796.09
2019-04-29T03:37:32.238Z,97750.65
2019-04-29T03:39:33.844Z,97790.40
2019-04-29T03:41:35.465Z,97787.14
2019-04-29T03:43:37.056Z,97795.66
2019-04-29T03:45:38.645Z,97799.02
2019-04-29T03:47:40.230Z,97788.73
2019-04-29T03:49:41.799Z,97778.02
2019-04-29T03:51:43.392Z,97778.76
2019-04-29T03:53:45.014Z,97782.02
2019-04-29T03:55:46.618Z,97771.75
2019-04-29T03:57:48.244Z,97775.94
2019-04-29T03:59:49.857Z,97778.02
2019-04-29T04:02:03.367Z,97776.74
2019-04-29T04:04:15.750Z,97773.30
2019-04-29T04:06:17.346Z,97769.34
2019-04-29T04:08:20.807Z,97767.27
2019-04-29T04:10:22.421Z,97768.98
2019-04-29T04:12:24.077Z,97771.43
2019-04-29T04:14:25.673Z,97772.70
2019-04-29T04:16:28.931Z,97773.66
2019-04-29T04:18:30.551Z,97769.53
2019-04-29T04:20:32.160Z,97775.44
2019-04-29T04:22:39.628Z,97778.81
2019-04-29T04:24:41.242Z,97770.66
2019-04-29T04:26:42.825Z,97774.02
2019-04-29T04:28:44.416Z,97774.41
2019-04-29T04:30:46.005Z,97773.92
2019-04-29T04:32:47.624Z,97775.09
2019-04-29T04:34:49.212Z,97767.36
2019-04-29T04:36:50.805Z,97761.80
2019-04-29T04:38:52.424Z,97767.41
2019-04-29T04:40:54.599Z,97770.42
2019-04-29T04:42:56.201Z,97771.33
2019-04-29T04:44:57.791Z,97767.50
2019-04-29T04:46:59.370Z,97777.75
2019-04-29T04:49:01.082Z,97772.56
2019-04-29T04:51:02.669Z,97767.52
2019-04-29T04:53:04.332Z,97772.23
2019-04-29T04:55:06.143Z,97770.59
2019-04-29T04:57:07.728Z,97771.96
2019-04-29T04:59:09.313Z,97779.20
2019-04-29T05:01:10.922Z,97774.42
2019-04-29T05:03:12.518Z,97776.84
2019-04-29T05:05:14.128Z,97774.70
2019-04-29T05:07:15.720Z,97779.55
2019-04-29T05:09:17.304Z,97773.56
2019-04-29T05:11:18.888Z,97769.72
2019-04-29T05:13:27.883Z,97770.26
2019-04-29T05:15:22.159Z,97768.27
2019-04-29T05:17:23.753Z,97764.93
2019-04-29T05:19:25.393Z,97758.46
2019-04-29T05:21:26.991Z,97760.95
2019-04-29T05:23:28.588Z,97766.48
2019-04-29T05:25:30.213Z,97767.24
2019-04-29T05:27:31.786Z,97759.11
2019-04-29T05:29:33.377Z,97761.69
2019-04-29T05:31:34.960Z,97757.42
2019-04-29T05:33:36.566Z,97751.45
2019-04-29T05:35:43.848Z,97755.73
2019-04-29T05:37:47.993Z,97746.84
2019-04-29T05:39:49.571Z,97747.34
2019-04-29T05:41:51.239Z,97754.55
2019-04-29T05:43:53.612Z,97751.64
2019-04-29T05:46:00.924Z,97746.06
2019-04-29T05:48:03.013Z,97747.80
2019-04-29T05:50:11.958Z,97746.50
2019-04-29T05:52:17.459Z,97743.50
2019-04-29T05:54:19.944Z,97744.30
2019-04-29T05:56:21.539Z,97747.30
2019-04-29T05:58:23.152Z,97752.41
2019-04-29T06:00:24.795Z,97744.30
2019-04-29T06:02:33.616Z,97738.57
2019-04-29T06:04:28.798Z,97729.61
2019-04-29T06:06:29.739Z,97723.64
2019-04-29T06:08:34.604Z,97721.55
2019-04-29T06:10:32.998Z,97732.34
2019-04-29T06:12:34.604Z,97738.33
2019-04-29T06:14:36.196Z,97739.66
2019-04-29T06:16:37.795Z,97744.73
2019-04-29T06:18:40.983Z,97745.20
2019-04-29T06:20:41.088Z,97742.58
2019-04-29T06:22:43.541Z,97740.86
2019-04-29T06:24:44.358Z,97741.64
2019-04-29T06:26:45.944Z,97739.48
2019-04-29T06:28:47.549Z,97735.15
2019-04-29T06:30:50.116Z,97724.89
2019-04-29T06:32:50.755Z,97736.94
2019-04-29T06:34:52.350Z,97739.58
2019-04-29T06:36:53.937Z,97740.52
2019-04-29T06:38:55.539Z,97740.98
2019-04-29T06:40:57.145Z,97712.90
2019-04-29T06:42:58.756Z,97740.11
2019-04-29T06:45:00.454Z,97738.41
2019-04-29T06:47:02.191Z,97745.07
2019-04-29T06:49:10.621Z,97747.11
2019-04-29T06:51:05.462Z,97749.23
2019-04-29T06:53:07.054Z,97748.44
2019-04-29T06:55:08.660Z,97759.63
2019-04-29T06:57:10.295Z,97749.94
2019-04-29T06:59:13.651Z,97752.22
2019-04-29T07:01:13.579Z,97750.60
2019-04-29T07:03:15.200Z,97740.31
2019-04-29T07:05:16.809Z,97731.43
2019-04-29T07:07:18.420Z,97719.81
2019-04-29T07:09:20.027Z,97696.23
2019-04-29T07:11:21.675Z,97693.56
2019-04-29T07:13:24.598Z,97689.66
2019-04-29T07:15:24.930Z,97692.13
2019-04-29T07:17:26.516Z,97682.33
2019-04-29T07:19:28.355Z,97683.26
2019-04-29T07:21:29.767Z,97681.99
2019-04-29T07:23:31.360Z,97678.62
2019-04-29T07:25:32.979Z,97677.90
2019-04-29T07:27:42.832Z,97673.23
2019-04-29T07:29:38.041Z,97673.72
2019-04-29T07:31:37.902Z,97680.16
2019-04-29T07:33:39.524Z,97682.46
2019-04-29T07:35:42.901Z,97685.09
2019-04-29T07:37:42.777Z,97690.46
2019-04-29T07:39:44.436Z,97687.80
2019-04-29T07:41:49.538Z,97676.27
2019-04-29T07:43:47.684Z,97665.27
2019-04-29T07:46:03.798Z,97658.53
2019-04-29T07:48:01.617Z,97652.03
2019-04-29T07:50:02.658Z,97640.25
2019-04-29T07:52:04.262Z,97635.77
2019-04-29T07:54:05.859Z,97638.66
2019-04-29T07:56:08.186Z,97648.81
2019-04-29T07:58:09.177Z,97657.69
2019-04-29T08:00:12.959Z,97656.80
2019-04-29T08:02:12.396Z,97651.61
2019-04-29T08:04:13.979Z,97649.95
2019-04-29T08:06:15.569Z,97639.80
2019-04-29T08:08:21.367Z,97650.52
2019-04-29T08:10:23.635Z,97651.39
2019-04-29T08:12:20.501Z,97657.78
2019-04-29T08:14:22.088Z,97654.84
2019-04-29T08:16:23.692Z,97658.09
2019-04-29T08:18:25.305Z,97662.54
2019-04-29T08:20:26.902Z,97670.82
2019-04-29T08:22:29.341Z,97668.77
2019-04-29T08:24:30.157Z,97674.83
2019-04-29T08:26:33.579Z,97681.34
2019-04-29T08:28:33.412Z,97658.00
2019-04-29T08:30:35.015Z,97696.45
2019-04-29T08:32:38.055Z,97709.36
2019-04-29T08:34:40.724Z,97713.25
2019-04-29T08:36:39.984Z,97714.55
2019-04-29T08:38:41.558Z,97717.55
2019-04-29T08:40:45.093Z,97711.56
2019-04-29T08:42:46.937Z,97710.30
2019-04-29T08:45:03.088Z,97713.78
2019-04-29T08:47:30.517Z,97683.59
2019-04-29T08:49:25.996Z,97705.42
2019-04-29T08:51:27.604Z,97707.11
2019-04-29T08:53:29.808Z,97703.66
2019-04-29T08:55:36.122Z,97693.92
2019-04-29T08:57:36.518Z,97699.43
2019-04-29T08:59:34.700Z,97683.61
2019-04-29T09:01:36.280Z,97684.47
2019-04-29T09:03:40.480Z,97681.45
2019-04-29T09:05:41.695Z,97666.13
2019-04-29T09:07:41.220Z,97679.72
2019-04-29T09:09:42.810Z,97681.39
2019-04-29T09:11:47.883Z,97684.89
2019-04-29T09:13:46.079Z,97679.53
2019-04-29T09:15:47.674Z,97670.28
2019-04-29T09:17:49.289Z,97671.16
2019-04-29T09:19:50.886Z,97670.84
2019-04-29T09:21:54.183Z,97666.68
2019-04-29T09:23:55.804Z,97665.83
2019-04-29T09:26:03.351Z,97660.64
2019-04-29T09:28:17.961Z,97655.73
2019-04-29T09:30:15.076Z,97655.23
2019-04-29T09:32:16.675Z,97661.57
2019-04-29T09:34:19.892Z,97658.44
2019-04-29T09:36:19.946Z,97645.05
2019-04-29T09:38:21.536Z,97639.42
2019-04-29T09:40:23.148Z,97644.80
2019-04-29T09:42:31.236Z,97639.27
2019-04-29T09:44:53.606Z,97647.53
2019-04-29T09:46:55.212Z,97647.53
2019-04-29T09:48:56.824Z,97647.97
2019-04-29T09:50:58.615Z,97646.48
2019-04-29T09:53:00.223Z,97649.80
2019-04-29T09:55:04.069Z,97642.34
2019-04-29T09:57:03.516Z,97643.51
2019-04-29T09:59:10.947Z,97642.04
2019-04-29T10:01:18.741Z,97649.13
2019-04-29T10:03:30.568Z,97637.96
2019-04-29T10:05:47.632Z,97639.56
2019-04-29T10:07:49.236Z,97620.88
2019-04-29T10:09:57.350Z,97631.39
2019-04-29T10:11:52.507Z,97629.15
2019-04-29T10:13:54.128Z,97631.36
2019-04-29T10:16:10.592Z,97639.45
2019-04-29T10:18:17.809Z,97634.20
2019-04-29T10:20:32.126Z,97631.29
2019-04-29T10:22:33.754Z,97630.11
2019-04-29T10:24:35.360Z,97640.02
2019-04-29T10:26:37.008Z,97639.64
2019-04-29T10:28:38.592Z,97636.40
2019-04-29T10:30:40.244Z,97640.66
2019-04-29T10:32:42.550Z,97627.10
2019-04-29T10:34:43.493Z,97631.37
2019-04-29T10:36:45.143Z,97629.36
2019-04-29T10:38:46.796Z,97624.55
2019-04-29T10:40:48.366Z,97618.48
2019-04-29T10:42:55.534Z,97612.52
2019-04-29T10:45:13.898Z,97621.15
2019-04-29T10:47:20.316Z,97622.08
2019-04-29T10:49:22.532Z,97627.37
2019-04-29T10:51:27.487Z,97634.64
2019-04-29T10:53:28.783Z,97632.59
2019-04-29T10:55:30.117Z,97632.14
2019-04-29T10:57:29.490Z,97635.59
2019-04-29T10:59:35.969Z,97629.59
2019-04-29T11:01:36.887Z,97628.72
2019-04-29T11:03:38.458Z,97633.79
2019-04-29T11:05:44.578Z,97629.02
2019-04-29T11:07:41.732Z,97630.72
2019-04-29T11:09:46.247Z,97638.00
2019-04-29T11:11:45.492Z,97635.86
2019-04-29T11:13:50.525Z,97638.06
2019-04-29T11:15:49.416Z,97627.67
2019-04-29T11:17:58.800Z,97629.13
2019-04-29T11:19:52.121Z,97630.78
2019-04-29T11:21:53.746Z,97638.99
2019-04-29T11:23:56.499Z,97636.02
2019-04-29T11:25:57.452Z,97644.77
2019-04-29T11:27:59.124Z,97640.66
2019-04-29T11:30:03.045Z,97640.37
2019-04-29T11:32:02.424Z,97642.63
2019-04-29T11:34:06.667Z,97639.59
2019-04-29T11:36:08.270Z,97641.19
2019-04-29T11:38:10.596Z,97638.16
2019-04-29T11:40:12.196Z,97636.53
2019-04-29T11:42:14.214Z,97638.30
2019-04-29T11:44:15.828Z,97631.08
2019-04-29T11:46:20.755Z,97622.19
2019-04-29T11:48:19.334Z,97643.02
2019-04-29T11:50:26.679Z,97641.79
2019-04-29T11:52:28.209Z,97633.23
2019-04-29T11:54:27.020Z,97634.48
2019-04-29T11:56:28.627Z,97632.35
2019-04-29T11:58:33.965Z,97633.63
2019-04-29T12:00:38.060Z,97629.47
2019-04-29T12:02:45.729Z,97630.03
2019-04-29T12:04:43.945Z,97628.94
2019-04-29T12:06:45.555Z,97625.02
2019-04-29T12:08:48.347Z,97629.73
2019-04-29T12:11:06.211Z,97625.02
2019-04-29T12:12:50.592Z,97619.41
2019-04-29T12:14:54.076Z,97614.30
2019-04-29T12:17:01.336Z,97622.70
2019-04-29T12:19:17.170Z,97623.06
2019-04-29T12:21:17.029Z,97600.30
2019-04-29T12:23:18.652Z,97617.52
2019-04-29T12:25:22.941Z,97620.06
2019-04-29T12:27:21.922Z,97619.66
2019-04-29T12:29:23.527Z,97626.07
2019-04-29T12:31:38.923Z,97620.52
2019-04-29T12:33:42.164Z,97610.20
2019-04-29T12:35:52.051Z,97615.27
2019-04-29T12:37:53.980Z,97607.11
2019-04-29T12:40:16.365Z,97606.73
2019-04-29T12:42:35.833Z,97602.53
2019-04-29T12:44:39.624Z,97599.16
2019-04-29T12:46:40.559Z,97597.12
2019-04-29T12:48:42.164Z,97595.00
2019-04-29T12:50:43.805Z,97590.25
2019-04-29T12:52:45.392Z,97593.66
2019-04-29T12:54:47.716Z,97590.74
2019-04-29T12:56:49.564Z,97572.47
2019-04-29T12:58:50.841Z,97599.34
2019-04-29T13:00:59.785Z,97598.95
2019-04-29T13:02:55.667Z,97592.20
2019-04-29T13:04:55.231Z,97593.56
2019-04-29T13:07:02.579Z,97594.00
2019-04-29T13:09:17.563Z,97588.52
2019-04-29T13:11:09.393Z,97591.03
2019-04-29T13:13:10.990Z,97591.02
2019-04-29T13:15:18.235Z,97598.25
2019-04-29T13:17:34.689Z,97591.45
2019-04-29T13:19:36.779Z,97584.30
2019-04-29T13:21:39.524Z,97583.93
2019-04-29T13:23:55.186Z,97583.54
2019-04-29T13:25:41.688Z,97587.94
2019-04-29T13:27:43.283Z,97586.34
2019-04-29T13:29:44.875Z,97542.98
2019-04-29T13:31:46.461Z,97599.77
2019-04-29T13:33:52.539Z,97588.77
2019-04-29T13:35:49.784Z,97583.77
2019-04-29T13:37:51.660Z,97587.63
2019-04-29T13:39:55.625Z,97586.33
2019-04-29T13:41:57.858Z,97581.16
2019-04-29T13:44:04.426Z,97557.21
2019-04-29T13:46:05.333Z,97580.10
2019-04-29T13:48:07.119Z,97586.90
2019-04-29T13:50:18.072Z,97585.09
2019-04-29T13:52:10.404Z,97581.97
2019-04-29T13:54:11.974Z,97587.00
2019-04-29T13:56:32.254Z,97579.67
2019-04-29T13:58:15.256Z,97578.34
2019-04-29T14:00:19.928Z,97570.90
2019-04-29T14:02:22.117Z,97583.98
2019-04-29T14:04:26.836Z,97582.70
2019-04-29T14:06:28.415Z,97589.47
2019-04-29T14:08:30.623Z,97580.03
2019-04-29T14:10:31.696Z,97549.84
2019-04-29T14:12:56.990Z,97580.28
2019-04-29T14:14:34.957Z,97575.16
2019-04-29T14:16:36.544Z,97577.63
2019-04-29T14:18:38.127Z,97579.41
2019-04-29T14:20:39.776Z,97569.60
2019-04-29T14:22:41.364Z,97572.66
2019-04-29T14:24:42.963Z,97576.97
2019-04-29T14:26:47.723Z,97573.98
2019-04-29T14:28:46.220Z,97580.38
2019-04-29T14:30:49.144Z,97580.85
2019-04-29T14:32:49.796Z,97581.62
2019-04-29T14:35:01.165Z,97590.14
2019-04-29T14:37:19.825Z,97589.28
2019-04-29T14:39:04.446Z,97589.75
2019-04-29T14:41:06.052Z,97582.67
2019-04-29T14:43:27.097Z,97588.19
2019-04-29T14:45:29.920Z,97595.03
2019-04-29T14:47:33.276Z,97589.06
2019-04-29T14:49:35.357Z,97592.92
2019-04-29T14:51:37.908Z,97583.60
2019-04-29T14:53:38.216Z,97579.41
2019-04-29T14:55:39.807Z,97583.96
2019-04-29T14:57:41.420Z,97586.16
2019-04-29T14:59:43.255Z,97578.15
2019-04-29T15:01:47.687Z,97577.37
2019-04-29T15:03:55.077Z,97580.03
2019-04-29T15:05:56.673Z,97589.39
2019-04-29T15:07:58.318Z,97582.58
2019-04-29T15:10:00.057Z,97582.17
2019-04-29T15:12:03.354Z,97589.77
2019-04-29T15:14:10.925Z,97587.21
2019-04-29T15:16:13.947Z,97588.07
2019-04-29T15:18:38.707Z,97593.67
2019-04-29T15:20:25.308Z,97588.20
2019-04-29T15:22:43.952Z,97591.17
2019-04-29T15:24:45.588Z,97593.39
2019-04-29T15:26:47.219Z,97591.17
2019-04-29T15:28:50.668Z,97546.46
2019-04-29T15:30:52.252Z,97586.50
2019-04-29T15:32:57.876Z,97593.67
2019-04-29T15:34:55.563Z,97591.97
2019-04-29T15:36:57.201Z,97594.52
2019-04-29T15:39:09.268Z,97600.42
2019-04-29T15:41:00.553Z,97599.14
2019-04-29T15:43:02.187Z,97599.20
2019-04-29T15:45:03.736Z,97596.73
2019-04-29T15:47:05.315Z,97596.71
2019-04-29T15:49:06.929Z,97593.31
2019-04-29T15:51:09.142Z,97603.10
2019-04-29T15:53:10.188Z,97608.63
2019-04-29T15:55:11.759Z,97602.99
2019-04-29T15:57:15.553Z,97611.50
2019-04-29T15:59:15.089Z,97606.38
2019-04-29T16:01:18.306Z,97605.08
2019-04-29T16:03:20.174Z,97610.66
2019-04-29T16:05:25.615Z,97606.06
2019-04-29T16:07:30.749Z,97607.80
2019-04-29T16:09:50.703Z,97609.52
2019-04-29T16:11:49.396Z,97613.34
2019-04-29T16:14:08.320Z,97616.18
2019-04-29T16:15:52.708Z,97612.78
2019-04-29T16:17:54.319Z,97617.88
2019-04-29T16:19:55.945Z,97618.73
2019-04-29T16:21:57.555Z,97619.95
2019-04-29T16:23:59.146Z,97618.23
2019-04-29T16:26:00.778Z,97619.42
2019-04-29T16:28:02.383Z,97618.58
2019-04-29T16:30:04.005Z,97618.97
2019-04-29T16:32:05.608Z,97612.94
2019-04-29T16:34:07.196Z,97610.78
2019-04-29T16:36:08.841Z,97605.19
2019-04-29T16:38:11.335Z,97606.90
2019-04-29T16:40:12.108Z,97603.91
2019-04-29T16:42:25.383Z,97603.89
2019-04-29T16:44:35.677Z,97603.98
2019-04-29T16:46:35.740Z,97599.39
2019-04-29T16:48:30.361Z,97596.94
2019-04-29T16:50:31.980Z,97603.46
2019-04-29T16:52:33.564Z,97601.39
2019-04-29T16:54:35.153Z,97600.63
2019-04-29T16:56:36.795Z,97548.66
2019-04-29T16:58:38.407Z,97595.01
2019-04-29T17:00:40.015Z,97604.78
2019-04-29T17:02:41.604Z,97602.18
2019-04-29T17:04:43.262Z,97603.83
2019-04-29T17:07:10.777Z,97601.77
2019-04-29T17:09:05.223Z,97603.81
2019-04-29T17:11:17.472Z,97599.14
2019-04-29T17:13:23.460Z,97597.50
2019-04-29T17:15:24.778Z,97597.64
2019-04-29T17:17:28.337Z,97594.36
2019-04-29T17:19:21.457Z,97589.33
2019-04-29T17:21:23.059Z,97595.20
2019-04-29T17:23:24.784Z,97600.31
2019-04-29T17:25:26.344Z,97596.90
2019-04-29T17:27:45.846Z,97594.25
2019-04-29T17:29:49.587Z,97599.72
2019-04-29T17:32:10.502Z,97600.13
2019-04-29T17:34:12.353Z,97595.84
2019-04-29T17:36:13.622Z,97598.72
2019-04-29T17:38:15.204Z,97604.33
2019-04-29T17:40:16.820Z,97594.23
2019-04-29T17:42:18.413Z,97592.20
2019-04-29T17:44:36.874Z,97596.99
2019-04-29T17:46:59.100Z,97590.24
2019-04-29T17:49:11.395Z,97595.95
2019-04-29T17:51:13.026Z,97587.59
2019-04-29T17:53:15.260Z,97590.60
2019-04-29T17:55:17.798Z,97591.87
2019-04-29T17:57:31.110Z,97578.92
2019-04-29T17:59:30.739Z,97587.47
2019-04-29T18:01:31.927Z,97592.81
2019-04-29T18:03:47.674Z,97596.54
2019-04-29T18:05:57.087Z,97601.48
2019-04-29T18:08:02.406Z,97605.59
2019-04-29T18:10:05.051Z,97599.16
2019-04-29T18:12:06.272Z,97602.57
2019-04-29T18:14:07.869Z,97545.37
2019-04-29T18:16:17.899Z,97591.31
2019-04-29T18:18:16.969Z,97597.69
2019-04-29T18:20:24.907Z,97598.94
2019-04-29T18:22:24.988Z,97587.28
2019-04-29T18:24:35.959Z,97587.27
2019-04-29T18:26:40.488Z,97587.34
2019-04-29T18:28:42.123Z,97600.59
2019-04-29T18:30:45.018Z,97596.47
2019-04-29T18:32:46.713Z,97592.31
2019-04-29T18:34:46.975Z,97595.82
2019-04-29T18:36:48.589Z,97598.95
2019-04-29T18:38:50.209Z,97596.91
2019-04-29T18:40:51.792Z,97598.78
2019-04-29T18:42:55.263Z,97598.53
2019-04-29T18:45:00.248Z,97600.81
2019-04-29T18:46:57.300Z,97605.66
2019-04-29T18:49:03.145Z,97613.35
2019-04-29T18:51:00.088Z,97615.58
2019-04-29T18:53:01.692Z,97612.05
2019-04-29T18:55:03.280Z,97614.09
2019-04-29T18:57:05.885Z,97619.12
2019-04-29T18:59:06.482Z,97622.37
2019-04-29T19:01:08.071Z,97631.67
2019-04-29T19:03:09.657Z,97624.32
2019-04-29T19:05:11.256Z,97601.27
2019-04-29T19:07:12.856Z,97625.43
2019-04-29T19:09:19.839Z,97623.16
2019-04-29T19:11:16.117Z,97623.56
2019-04-29T19:13:17.700Z,97623.94
2019-04-29T19:15:19.310Z,97633.21
2019-04-29T19:17:21.740Z,97629.31
2019-04-29T19:19:22.620Z,97631.09
2019-04-29T19:21:30.408Z,97628.22
2019-04-29T19:23:29.476Z,97635.95
2019-04-29T19:25:27.552Z,97631.34
2019-04-29T19:27:30.542Z,97630.62
2019-04-29T19:29:30.847Z,97630.63
2019-04-29T19:31:36.892Z,97638.67
2019-04-29T19:33:35.704Z,97640.78
2019-04-29T19:35:38.554Z,97641.14
2019-04-29T19:37:40.076Z,97638.55
2019-04-29T19:39:39.155Z,97674.73
2019-04-29T19:41:40.779Z,97647.02
2019-04-29T19:43:42.361Z,97643.23
2019-04-29T19:45:44.631Z,97648.27
2019-04-29T19:47:49.849Z,97654.20
2019-04-29T19:49:47.360Z,97650.81
2019-04-29T19:51:48.968Z,97641.88
2019-04-29T19:53:50.564Z,97649.53
2019-04-29T19:56:01.449Z,97644.02
2019-04-29T19:57:55.814Z,97646.65
2019-04-29T19:59:56.673Z,97639.86
2019-04-29T20:02:05.186Z,97651.46
2019-04-29T20:04:17.705Z,97653.23
2019-04-29T20:06:24.717Z,97649.47
2019-04-29T20:08:37.625Z,97657.99
2019-04-29T20:10:20.394Z,97654.58
2019-04-29T20:12:21.474Z,97651.18
2019-04-29T20:14:27.420Z,97646.92
2019-04-29T20:16:42.658Z,97657.58
2019-04-29T20:18:40.360Z,97653.39
2019-04-29T20:20:38.847Z,97657.73
2019-04-29T20:22:43.488Z,97655.70
2019-04-29T20:24:41.423Z,97657.91
2019-04-29T20:26:44.124Z,97668.66
2019-04-29T20:28:45.864Z,97670.08
2019-04-29T20:30:50.450Z,97664.64
2019-04-29T20:32:48.222Z,97666.91
2019-04-29T20:34:49.871Z,97664.87
2019-04-29T20:36:51.556Z,97665.82
2019-04-29T20:38:53.168Z,97617.36
2019-04-29T20:40:55.468Z,97667.26
2019-04-29T20:42:56.542Z,97667.31
2019-04-29T20:44:58.214Z,97619.60
2019-04-29T20:47:16.716Z,97662.35
2019-04-29T20:49:01.632Z,97662.02
2019-04-29T20:51:11.705Z,97664.56
2019-04-29T20:53:05.838Z,97670.56
2019-04-29T20:55:09.154Z,97661.69
2019-04-29T20:57:17.706Z,97664.88
2019-04-29T20:59:12.770Z,97665.03
2019-04-29T21:01:12.087Z,97659.00
2019-04-29T21:03:13.786Z,97659.86
2019-04-29T21:05:23.158Z,97662.58
2019-04-29T21:07:23.469Z,97659.99
2019-04-29T21:09:22.163Z,97662.41
2019-04-29T21:11:22.121Z,97658.60
2019-04-29T21:13:39.556Z,97664.66
2019-04-29T21:15:45.074Z,97659.38
2019-04-29T21:17:45.245Z,97668.80
2019-04-29T21:19:46.378Z,97665.66
2019-04-29T21:21:47.986Z,97670.66
2019-04-29T21:23:49.597Z,97660.92
2019-04-29T21:25:51.211Z,97669.22
2019-04-29T21:27:57.185Z,97626.59
2019-04-29T21:29:55.401Z,97675.41
2019-04-29T21:32:01.459Z,97675.84
2019-04-29T21:33:59.044Z,97667.52
2019-04-29T21:36:01.374Z,97665.94
2019-04-29T21:38:22.229Z,97666.29
2019-04-29T21:40:26.583Z,97663.88
2019-04-29T21:42:35.224Z,97671.39
2019-04-29T21:44:31.086Z,97664.77
2019-04-29T21:46:32.664Z,97671.53
2019-04-29T21:48:37.196Z,97673.26
2019-04-29T21:50:37.994Z,97674.81
2019-04-29T21:52:37.563Z,97676.34
2019-04-29T21:54:39.207Z,97662.28
2019-04-29T21:56:46.535Z,97630.71
2019-04-29T21:58:42.483Z,97675.72
2019-04-29T22:00:45.552Z,97666.55
2019-04-29T22:02:48.981Z,97670.45
2019-04-29T22:04:47.617Z,97672.53
2019-04-29T22:06:49.233Z,97682.36
2019-04-29T22:08:55.863Z,97677.19
2019-04-29T22:10:52.492Z,97681.81
2019-04-29T22:12:58.443Z,97685.20
2019-04-29T22:14:56.458Z,97666.83
2019-04-29T22:16:57.407Z,97681.91
2019-04-29T22:18:59.056Z,97678.73
2019-04-29T22:21:00.643Z,97685.93
2019-04-29T22:23:08.709Z,97684.03
2019-04-29T22:25:05.954Z,97679.78
2019-04-29T22:27:08.202Z,97677.60
2019-04-29T22:29:07.276Z,97674.09
2019-04-29T22:31:08.876Z,97670.07
2019-04-29T22:33:10.464Z,97673.57
2019-04-29T22:35:12.081Z,97666.98
2019-04-29T22:37:15.279Z,97663.64
2019-04-29T22:39:15.803Z,97665.24
2019-04-29T22:41:31.887Z,97671.48
2019-04-29T22:43:36.167Z,97664.14
2019-04-29T22:45:37.608Z,97659.19
2019-04-29T22:47:39.242Z,97665.92
2019-04-29T22:49:40.818Z,97658.23
2019-04-29T22:51:42.466Z,97660.73
2019-04-29T22:53:47.104Z,97663.47
2019-04-29T22:55:45.702Z,97660.36
2019-04-29T22:57:47.344Z,97668.64
2019-04-29T22:59:49.452Z,97672.53
2019-04-29T23:01:50.771Z,97669.96
2019-04-29T23:03:52.331Z,97660.02
2019-04-29T23:05:55.725Z,97668.08
2019-04-29T23:07:57.047Z,97672.40
2019-04-29T23:09:57.567Z,97672.11
2019-04-29T23:11:58.883Z,97669.25
2019-04-29T23:14:01.727Z,97670.41
2019-04-29T23:16:02.312Z,97671.94
2019-04-29T23:18:03.822Z,97675.97
2019-04-29T23:20:07.062Z,97677.27
2019-04-29T23:22:10.724Z,97676.39
2019-04-29T23:24:27.132Z,97675.53
2019-04-29T23:26:28.716Z,97676.08
2019-04-29T23:28:30.364Z,97674.11
2019-04-29T23:30:31.967Z,97672.36
2019-04-29T23:32:35.107Z,97667.83
2019-04-29T23:34:36.387Z,97669.28
2019-04-29T23:36:36.855Z,97652.75
2019-04-29T23:38:42.336Z,97671.86
2019-04-29T23:40:40.126Z,97680.59
2019-04-29T23:42:43.696Z,97673.15
2019-04-29T23:44:44.192Z,97669.88
2019-04-29T23:46:47.385Z,97652.58
2019-04-29T23:48:46.775Z,97669.42
2019-04-29T23:50:49.628Z,97665.69
2019-04-29T23:52:51.891Z,97660.77
2019-04-29T23:54:51.681Z,97667.17
2019-04-29T23:56:58.829Z,97672.80
2019-04-29T23:59:18.467Z,97670.42
